createdAt,value
2022-12-23T00:00:14.094Z,86.89
2022-12-23T00:03:16.731Z,86.96
2022-12-23T00:06:20.515Z,86.53
2022-12-23T00:09:23.006Z,86.39
2022-12-23T00:12:43.778Z,86.32
2022-12-23T00:15:46.109Z,86.61
2022-12-23T00:18:48.558Z,87.04
2022-12-23T00:21:50.908Z,87.26
2022-12-23T00:24:53.316Z,87.08
2022-12-23T00:28:01.550Z,87.27
2022-12-23T00:31:06.837Z,87.05
2022-12-23T00:34:11.032Z,86.55
2022-12-23T00:37:13.482Z,86.76
2022-12-23T00:40:35.049Z,87.25
2022-12-23T00:43:37.477Z,86.80
2022-12-23T00:46:39.881Z,86.35
2022-12-23T00:49:42.589Z,86.55
2022-12-23T00:52:44.945Z,86.34
2022-12-23T00:55:47.912Z,86.29
2022-12-23T00:58:50.380Z,86.59
2022-12-23T01:02:12.287Z,86.05
2022-12-23T01:05:33.351Z,85.88
2022-12-23T01:08:35.721Z,86.17
2022-12-23T01:11:38.246Z,86.29
2022-12-23T01:14:40.919Z,86.75
2022-12-23T01:17:43.298Z,86.33
2022-12-23T01:20:46.985Z,86.27
2022-12-23T01:23:49.348Z,86.24
2022-12-23T01:26:51.712Z,86.89
2022-12-23T01:29:54.111Z,87.09
2022-12-23T01:32:56.557Z,86.78
2022-12-23T01:36:07.561Z,86.92
2022-12-23T01:39:10.061Z,87.72
2022-12-23T01:42:37.226Z,88.54
2022-12-23T01:45:39.692Z,88.32
2022-12-23T01:48:45.129Z,87.80
2022-12-23T01:51:47.799Z,87.47
2022-12-23T01:54:50.513Z,87.43
2022-12-23T01:57:56.625Z,87.13
2022-12-23T02:01:18.414Z,86.89
2022-12-23T02:04:23.968Z,86.45
2022-12-23T02:07:46.225Z,86.44
2022-12-23T02:11:00.852Z,87.03
2022-12-23T02:14:50.184Z,86.45
2022-12-23T02:18:16.463Z,86.44
2022-12-23T02:21:43.367Z,86.25
2022-12-23T02:25:06.965Z,86.35
2022-12-23T02:28:25.853Z,86.60
2022-12-23T02:32:00.223Z,86.43
2022-12-23T02:35:21.108Z,86.54
2022-12-23T02:38:29.954Z,87.04
2022-12-23T02:41:35.091Z,87.13
2022-12-23T02:45:10.169Z,87.27
2022-12-23T02:48:22.410Z,87.61
2022-12-23T02:51:31.021Z,87.41
2022-12-23T02:54:40.845Z,86.80
2022-12-23T02:57:48.392Z,86.50
2022-12-23T03:00:51.456Z,86.23
2022-12-23T03:03:53.955Z,85.70
2022-12-23T03:07:01.673Z,86.16
2022-12-23T03:10:26.190Z,86.50
2022-12-23T03:13:47.310Z,86.34
2022-12-23T03:17:04.717Z,86.28
2022-12-23T03:20:26.381Z,86.79
2022-12-23T03:23:55.688Z,86.12
2022-12-23T03:27:06.929Z,86.47
2022-12-23T03:30:14.572Z,85.70
2022-12-23T03:33:26.960Z,85.64
2022-12-23T03:36:38.360Z,85.74
2022-12-23T03:39:49.632Z,86.17
2022-12-23T03:43:01.185Z,86.41
2022-12-23T03:46:10.810Z,86.59
2022-12-23T03:49:22.921Z,86.55
2022-12-23T03:52:33.314Z,86.55
2022-12-23T03:55:48.296Z,86.70
2022-12-23T03:59:00.684Z,86.48
2022-12-23T04:02:42.460Z,86.06
2022-12-23T04:05:52.569Z,86.77
2022-12-23T04:08:56.987Z,87.42
2022-12-23T04:12:00.549Z,87.53
2022-12-23T04:15:07.451Z,87.88
2022-12-23T04:18:13.240Z,87.77
2022-12-23T04:21:15.802Z,87.37
2022-12-23T04:24:18.221Z,87.56
2022-12-23T04:27:20.703Z,88.21
2022-12-23T04:30:28.050Z,87.79
2022-12-23T04:33:35.901Z,87.89
2022-12-23T04:36:38.297Z,88.30
2022-12-23T04:39:40.749Z,88.18
2022-12-23T04:42:43.137Z,88.50
2022-12-23T04:45:50.201Z,87.90
2022-12-23T04:48:52.642Z,87.67
2022-12-23T04:51:55.189Z,87.01
2022-12-23T04:54:57.662Z,87.09
2022-12-23T04:58:00.030Z,87.08
2022-12-23T05:01:03.373Z,87.20
2022-12-23T05:04:05.787Z,86.20
2022-12-23T05:07:08.132Z,87.06
2022-12-23T05:10:10.911Z,87.48
2022-12-23T05:13:13.687Z,87.85
2022-12-23T05:16:16.114Z,88.26
2022-12-23T05:19:18.475Z,88.33
2022-12-23T05:22:20.867Z,88.32
2022-12-23T05:25:23.199Z,88.55
2022-12-23T05:28:25.666Z,88.67
2022-12-23T05:31:28.294Z,88.86
2022-12-23T05:34:30.709Z,88.24
2022-12-23T05:37:33.146Z,88.31
2022-12-23T05:40:37.701Z,88.76
2022-12-23T05:43:40.368Z,88.66
2022-12-23T05:46:42.825Z,89.05
2022-12-23T05:49:45.457Z,89.30
2022-12-23T05:52:47.818Z,89.63
2022-12-23T05:55:50.538Z,88.71
2022-12-23T05:58:52.965Z,88.83
2022-12-23T06:01:55.477Z,88.78
2022-12-23T06:04:58.148Z,88.81
2022-12-23T06:08:00.532Z,88.65
2022-12-23T06:11:06.883Z,88.51
2022-12-23T06:14:10.293Z,89.38
2022-12-23T06:17:12.682Z,88.81
2022-12-23T06:20:20.446Z,88.77
2022-12-23T06:23:23.389Z,89.02
2022-12-23T06:26:26.416Z,88.97
2022-12-23T06:29:29.322Z,88.83
2022-12-23T06:32:37.887Z,87.88
2022-12-23T06:35:41.099Z,88.38
2022-12-23T06:38:43.477Z,88.60
2022-12-23T06:41:46.244Z,88.78
2022-12-23T06:44:48.719Z,88.28
2022-12-23T06:47:51.125Z,88.13
2022-12-23T06:50:55.433Z,88.52
2022-12-23T06:54:00.017Z,87.84
2022-12-23T06:57:02.405Z,87.94
2022-12-23T07:00:05.651Z,87.96
2022-12-23T07:03:08.555Z,88.01
2022-12-23T07:06:11.555Z,87.95
2022-12-23T07:09:13.964Z,88.17
2022-12-23T07:12:16.503Z,88.10
2022-12-23T07:15:18.916Z,88.78
2022-12-23T07:18:25.211Z,88.47
2022-12-23T07:21:29.726Z,88.86
2022-12-23T07:24:32.398Z,88.52
2022-12-23T07:27:34.798Z,88.23
2022-12-23T07:30:38.676Z,88.10
2022-12-23T07:33:41.201Z,88.62
2022-12-23T07:36:43.537Z,89.18
2022-12-23T07:39:45.988Z,88.81
2022-12-23T07:42:49.995Z,88.74
2022-12-23T07:45:59.150Z,88.38
2022-12-23T07:49:02.719Z,88.32
2022-12-23T07:52:05.224Z,88.15
2022-12-23T07:55:08.018Z,88.67
2022-12-23T07:58:10.404Z,88.21
2022-12-23T08:01:12.960Z,88.14
2022-12-23T08:04:15.334Z,87.21
2022-12-23T08:07:17.710Z,86.61
2022-12-23T08:10:20.045Z,87.86
2022-12-23T08:13:22.433Z,87.93
2022-12-23T08:16:24.804Z,87.66
2022-12-23T08:19:27.197Z,87.73
2022-12-23T08:22:31.907Z,87.11
2022-12-23T08:25:34.340Z,88.07
2022-12-23T08:28:37.576Z,88.65
2022-12-23T08:31:40.111Z,88.21
2022-12-23T08:34:42.569Z,88.24
2022-12-23T08:37:44.899Z,86.89
2022-12-23T08:40:47.702Z,88.44
2022-12-23T08:43:51.337Z,88.98
2022-12-23T08:46:54.925Z,89.22
2022-12-23T08:49:57.357Z,88.80
2022-12-23T08:52:59.922Z,89.40
2022-12-23T08:56:05.805Z,89.45
2022-12-23T08:59:18.681Z,88.50
2022-12-23T09:02:22.306Z,88.71
2022-12-23T09:05:25.022Z,88.46
2022-12-23T09:08:27.352Z,88.60
2022-12-23T09:11:30.096Z,88.23
2022-12-23T09:14:32.567Z,88.21
2022-12-23T09:17:35.288Z,88.15
2022-12-23T09:20:38.855Z,87.28
2022-12-23T09:23:41.731Z,87.55
2022-12-23T09:26:44.065Z,87.58
2022-12-23T09:29:46.485Z,87.35
2022-12-23T09:32:49.154Z,87.28
2022-12-23T09:35:51.531Z,86.98
2022-12-23T09:38:55.808Z,87.26
2022-12-23T09:42:28.300Z,87.13
2022-12-23T09:45:58.088Z,87.33
2022-12-23T09:49:09.235Z,86.87
2022-12-23T09:52:16.343Z,86.37
2022-12-23T09:55:20.722Z,86.84
2022-12-23T09:58:51.997Z,87.41
2022-12-23T10:02:22.374Z,87.31
2022-12-23T10:05:27.655Z,87.33
2022-12-23T10:08:41.857Z,87.80
2022-12-23T10:11:46.956Z,87.89
2022-12-23T10:14:52.631Z,87.38
2022-12-23T10:18:01.651Z,88.01
2022-12-23T10:21:14.574Z,88.15
2022-12-23T10:24:22.535Z,87.92
2022-12-23T10:27:42.451Z,88.22
2022-12-23T10:31:23.833Z,89.01
2022-12-23T10:34:22.678Z,88.80
2022-12-23T10:37:31.717Z,88.36
2022-12-23T10:41:08.804Z,89.07
2022-12-23T10:44:25.062Z,89.52
2022-12-23T10:47:35.886Z,89.62
2022-12-23T10:50:47.339Z,89.40
2022-12-23T10:53:55.978Z,88.83
2022-12-23T10:56:58.703Z,88.75
2022-12-23T11:00:01.538Z,88.12
2022-12-23T11:03:16.853Z,88.96
2022-12-23T11:06:19.532Z,88.48
2022-12-23T11:09:25.082Z,88.95
2022-12-23T11:12:52.269Z,89.58
2022-12-23T11:15:55.743Z,90.64
2022-12-23T11:19:02.135Z,90.25
2022-12-23T11:22:04.610Z,90.46
2022-12-23T11:25:27.587Z,90.42
2022-12-23T11:28:32.603Z,90.70
2022-12-23T11:31:36.588Z,90.72
2022-12-23T11:34:39.243Z,90.66
2022-12-23T11:37:43.055Z,90.81
2022-12-23T11:40:47.031Z,90.52
2022-12-23T11:43:57.627Z,91.01
2022-12-23T11:47:20.358Z,91.44
2022-12-23T11:50:31.188Z,92.23
2022-12-23T11:53:35.016Z,92.28
2022-12-23T11:56:40.500Z,93.02
2022-12-23T11:59:48.961Z,93.00
2022-12-23T12:03:03.638Z,93.12
2022-12-23T12:06:07.021Z,93.07
2022-12-23T12:09:13.112Z,93.16
2022-12-23T12:12:19.431Z,93.18
2022-12-23T12:15:48.154Z,92.97
2022-12-23T12:18:55.624Z,93.19
2022-12-23T12:22:05.187Z,93.07
2022-12-23T12:25:19.097Z,93.18
2022-12-23T12:28:25.966Z,92.70
2022-12-23T12:31:37.166Z,93.40
2022-12-23T12:35:03.611Z,92.77
2022-12-23T12:38:27.674Z,92.69
2022-12-23T12:41:38.392Z,92.60
2022-12-23T12:44:52.177Z,91.92
2022-12-23T12:48:28.211Z,92.00
2022-12-23T12:51:49.686Z,91.82
2022-12-23T12:55:32.895Z,91.88
2022-12-23T12:58:35.350Z,90.60
2022-12-23T13:01:44.739Z,90.23
2022-12-23T13:04:52.838Z,91.13
2022-12-23T13:08:07.230Z,91.09
2022-12-23T13:11:28.128Z,91.45
2022-12-23T13:14:49.224Z,91.46
2022-12-23T13:18:06.269Z,91.42
2022-12-23T13:21:17.308Z,91.55
2022-12-23T13:24:34.317Z,91.45
2022-12-23T13:27:54.767Z,91.49
2022-12-23T13:31:10.338Z,91.54
2022-12-23T13:34:24.947Z,92.08
2022-12-23T13:37:45.768Z,92.02
2022-12-23T13:41:22.880Z,91.71
2022-12-23T13:44:25.923Z,92.26
2022-12-23T13:47:48.630Z,92.15
2022-12-23T13:51:00.301Z,92.83
2022-12-23T13:54:21.998Z,93.45
2022-12-23T13:57:41.036Z,92.86
2022-12-23T14:00:45.310Z,93.23
2022-12-23T14:03:50.754Z,93.14
2022-12-23T14:06:55.860Z,92.54
2022-12-23T14:10:09.472Z,92.31
2022-12-23T14:13:17.253Z,92.24
2022-12-23T14:16:31.541Z,92.48
2022-12-23T14:19:33.851Z,92.37
2022-12-23T14:23:04.123Z,92.12
2022-12-23T14:26:21.428Z,92.90
2022-12-23T14:29:45.694Z,93.53
2022-12-23T14:32:50.562Z,94.05
2022-12-23T14:35:56.892Z,94.18
2022-12-23T14:39:11.150Z,93.56
2022-12-23T14:42:16.930Z,93.54
2022-12-23T14:45:41.610Z,93.68
2022-12-23T14:48:44.457Z,92.95
2022-12-23T14:51:50.780Z,93.13
2022-12-23T14:55:20.981Z,92.76
2022-12-23T14:58:18.661Z,92.69
2022-12-23T15:01:38.745Z,92.43
2022-12-23T15:04:55.043Z,91.87
2022-12-23T15:07:57.526Z,91.72
2022-12-23T15:11:00.249Z,92.75
2022-12-23T15:14:07.852Z,93.19
2022-12-23T15:17:25.047Z,93.64
2022-12-23T15:20:27.546Z,93.44
2022-12-23T15:23:30.441Z,94.23
2022-12-23T15:26:33.219Z,93.91
2022-12-23T15:29:35.833Z,93.05
2022-12-23T15:32:43.091Z,92.33
2022-12-23T15:35:46.030Z,92.86
2022-12-23T15:38:48.521Z,93.34
2022-12-23T15:41:50.893Z,92.62
2022-12-23T15:44:53.782Z,92.67
2022-12-23T15:47:56.170Z,91.56
2022-12-23T15:51:04.308Z,92.39
2022-12-23T15:54:08.550Z,92.03
2022-12-23T15:57:20.630Z,92.49
2022-12-23T16:00:41.024Z,92.52
2022-12-23T16:03:50.451Z,92.65
2022-12-23T16:06:53.644Z,93.78
2022-12-23T16:09:56.202Z,94.03
2022-12-23T16:12:59.069Z,93.36
2022-12-23T16:16:38.583Z,93.71
2022-12-23T16:19:44.668Z,94.10
2022-12-23T16:22:50.476Z,93.96
2022-12-23T16:25:53.435Z,93.29
2022-12-23T16:29:00.838Z,93.17
2022-12-23T16:32:03.339Z,93.12
2022-12-23T16:35:12.396Z,92.35
2022-12-23T16:38:23.738Z,92.35
2022-12-23T16:41:26.451Z,92.24
2022-12-23T16:44:28.963Z,92.79
2022-12-23T16:47:31.391Z,92.00
2022-12-23T16:50:37.322Z,92.10
2022-12-23T16:53:39.773Z,92.03
2022-12-23T16:56:43.093Z,91.80
2022-12-23T16:59:46.942Z,91.55
2022-12-23T17:02:49.683Z,91.55
2022-12-23T17:05:52.101Z,91.09
2022-12-23T17:08:56.946Z,90.91
2022-12-23T17:11:59.338Z,91.77
2022-12-23T17:15:01.667Z,91.65
2022-12-23T17:18:04.178Z,91.68
2022-12-23T17:21:16.965Z,91.76
2022-12-23T17:24:23.792Z,91.69
2022-12-23T17:27:26.296Z,90.33
2022-12-23T17:30:30.967Z,90.83
2022-12-23T17:33:33.742Z,91.35
2022-12-23T17:36:36.259Z,91.16
2022-12-23T17:39:39.467Z,90.84
2022-12-23T17:42:42.927Z,90.67
2022-12-23T17:45:45.833Z,90.73
2022-12-23T17:48:49.035Z,90.37
2022-12-23T17:51:51.448Z,90.15
2022-12-23T17:54:53.878Z,90.52
2022-12-23T17:57:56.326Z,90.49
2022-12-23T18:00:59.028Z,90.85
2022-12-23T18:04:01.524Z,90.70
2022-12-23T18:07:03.914Z,89.59
2022-12-23T18:10:07.174Z,90.49
2022-12-23T18:13:17.104Z,90.76
2022-12-23T18:16:19.548Z,88.77
2022-12-23T18:19:22.247Z,89.41
2022-12-23T18:22:27.007Z,90.16
2022-12-23T18:25:29.394Z,89.68
2022-12-23T18:28:31.947Z,88.57
2022-12-23T18:31:36.025Z,88.93
2022-12-23T18:34:38.343Z,89.71
2022-12-23T18:37:40.697Z,90.13
2022-12-23T18:40:44.656Z,89.70
2022-12-23T18:43:47.221Z,89.84
2022-12-23T18:46:50.394Z,88.88
2022-12-23T18:49:52.950Z,89.32
2022-12-23T18:52:56.276Z,88.37
2022-12-23T18:55:58.632Z,88.98
2022-12-23T18:59:01.032Z,89.18
2022-12-23T19:02:03.980Z,88.86
2022-12-23T19:05:07.442Z,89.64
2022-12-23T19:08:10.163Z,89.55
2022-12-23T19:11:20.560Z,89.51
2022-12-23T19:14:23.318Z,89.43
2022-12-23T19:17:25.698Z,87.92
2022-12-23T19:20:29.153Z,88.88
2022-12-23T19:23:31.930Z,88.66
2022-12-23T19:26:34.285Z,88.33
2022-12-23T19:29:37.256Z,88.44
2022-12-23T19:32:40.439Z,87.70
2022-12-23T19:35:44.397Z,88.56
2022-12-23T19:38:47.466Z,88.58
2022-12-23T19:41:50.258Z,87.98
2022-12-23T19:44:52.769Z,88.19
2022-12-23T19:47:55.262Z,87.48
2022-12-23T19:50:58.401Z,88.20
2022-12-23T19:54:00.750Z,86.97
2022-12-23T19:57:03.354Z,87.93
2022-12-23T20:00:06.739Z,88.25
2022-12-23T20:03:14.918Z,87.38
2022-12-23T20:06:20.610Z,86.98
2022-12-23T20:09:23.188Z,86.67
2022-12-23T20:12:27.454Z,86.28
2022-12-23T20:15:29.839Z,86.40
2022-12-23T20:18:32.390Z,86.17
2022-12-23T20:21:37.287Z,86.30
2022-12-23T20:24:39.688Z,87.42
2022-12-23T20:27:42.190Z,87.55
2022-12-23T20:30:48.405Z,88.13
2022-12-23T20:33:52.146Z,89.21
2022-12-23T20:36:54.778Z,89.09
2022-12-23T20:39:57.280Z,88.78
2022-12-23T20:42:59.640Z,88.77
2022-12-23T20:46:03.343Z,88.99
2022-12-23T20:49:05.881Z,89.59
2022-12-23T20:52:08.346Z,88.39
2022-12-23T20:55:10.708Z,88.71
2022-12-23T20:58:32.039Z,88.33
2022-12-23T21:01:37.902Z,88.40
2022-12-23T21:04:40.537Z,88.51
2022-12-23T21:07:42.948Z,88.19
2022-12-23T21:10:53.491Z,88.08
2022-12-23T21:14:01.157Z,87.47
2022-12-23T21:17:06.525Z,88.11
2022-12-23T21:20:09.314Z,88.30
2022-12-23T21:23:13.563Z,86.98
2022-12-23T21:26:18.701Z,86.62
2022-12-23T21:29:21.748Z,86.58
2022-12-23T21:32:24.341Z,86.74
2022-12-23T21:35:26.750Z,86.90
2022-12-23T21:38:34.208Z,87.58
2022-12-23T21:41:41.216Z,86.48
2022-12-23T21:44:43.634Z,86.37
2022-12-23T21:47:45.989Z,86.65
2022-12-23T21:50:54.033Z,88.20
2022-12-23T21:53:58.539Z,87.83
2022-12-23T21:57:00.891Z,87.62
2022-12-23T22:00:03.974Z,86.31
2022-12-23T22:03:07.037Z,86.80
2022-12-23T22:06:13.981Z,86.95
2022-12-23T22:09:19.642Z,87.91
2022-12-23T22:12:22.253Z,87.99
2022-12-23T22:15:24.641Z,87.90
2022-12-23T22:18:27.016Z,87.86
2022-12-23T22:21:31.885Z,88.81
2022-12-23T22:24:34.238Z,88.11
2022-12-23T22:27:36.745Z,87.98
2022-12-23T22:30:39.453Z,87.49
2022-12-23T22:33:42.053Z,87.85
2022-12-23T22:36:44.624Z,87.54
2022-12-23T22:39:47.193Z,87.60
2022-12-23T22:42:49.758Z,87.75
2022-12-23T22:45:57.239Z,88.81
2022-12-23T22:48:59.993Z,87.96
2022-12-23T22:52:02.623Z,89.24
2022-12-23T22:55:06.174Z,88.94
2022-12-23T22:58:08.540Z,88.38
2022-12-23T23:01:27.031Z,87.88
2022-12-23T23:04:29.441Z,89.08
2022-12-23T23:07:31.881Z,89.88
2022-12-23T23:10:35.688Z,90.14
2022-12-23T23:13:38.278Z,89.62
2022-12-23T23:16:40.784Z,89.95
2022-12-23T23:19:43.309Z,89.69
2022-12-23T23:22:45.717Z,89.84
2022-12-23T23:25:48.310Z,89.77
2022-12-23T23:28:50.696Z,90.44
2022-12-23T23:31:53.167Z,89.83
2022-12-23T23:34:55.664Z,89.58
2022-12-23T23:37:58.244Z,89.70
2022-12-23T23:41:01.673Z,89.30
2022-12-23T23:44:04.340Z,88.51
2022-12-23T23:47:06.677Z,88.80
2022-12-23T23:50:09.483Z,88.74
2022-12-23T23:53:13.991Z,89.18
2022-12-23T23:56:21.944Z,88.57
2022-12-23T23:59:27.341Z,88.92
